Time;durP1;ratioP1;P1;durP2;ratioP2;P2;SDS_P1;SDS_P2;PMS_P1;PMS_P2;Temp;Humidity;BMP_temperature;BMP_pressure;BME280_temperature;BME280_humidity;BME280_pressure;Samples;Min_cycle;Max_cycle;Signal;HPM_P1;HPM_P2
2022/03/22 00:02:19;;;;;;;25.70;12.25;;;;;;;2.13;70.62;102689.06;5027085;28;20037;-74
2022/03/22 00:04:44;;;;;;;21.50;12.03;;;;;;;2.07;70.04;102672.59;5030260;28;20095;-74
2022/03/22 00:07:10;;;;;;;26.70;14.23;;;;;;;2.03;70.95;102697.31;5013922;28;20029;-74
2022/03/22 00:09:36;;;;;;;21.57;11.83;;;;;;;2.02;71.55;102721.13;5030127;28;20587;-74
2022/03/22 00:12:02;;;;;;;26.30;13.77;;;;;;;1.95;71.42;102719.63;5014375;28;20037;-76
2022/03/22 00:14:27;;;;;;;25.88;13.02;;;;;;;1.93;70.83;102693.34;4998323;28;20034;-74
2022/03/22 00:16:53;;;;;;;23.33;11.53;;;;;;;1.90;71.57;102730.34;5016201;28;20047;-74
2022/03/22 00:19:22;;;;;;;29.25;15.10;;;;;;;1.83;71.99;102734.97;5014497;28;20021;-75
2022/03/22 00:21:48;;;;;;;26.83;11.70;;;;;;;1.84;72.09;102736.69;5015657;28;20041;-74
2022/03/22 00:24:13;;;;;;;25.48;13.98;;;;;;;1.88;72.09;102742.72;5015057;28;20018;-74
2022/03/22 00:26:39;;;;;;;23.88;13.40;;;;;;;1.87;72.44;102747.13;5014669;28;20045;-75
2022/03/22 00:29:04;;;;;;;23.65;13.43;;;;;;;1.80;72.83;102744.75;5032891;28;20108;-75
2022/03/22 00:31:30;;;;;;;23.33;12.30;;;;;;;1.77;72.96;102760.69;5014500;28;20056;-74
2022/03/22 00:33:56;;;;;;;26.33;13.50;;;;;;;1.73;73.55;102764.34;4998453;28;20037;-75
2022/03/22 00:36:22;;;;;;;24.77;13.05;;;;;;;1.71;73.66;102771.44;5030333;28;20478;-75
2022/03/22 00:38:48;;;;;;;26.27;14.48;;;;;;;1.73;73.56;102770.44;5047219;28;20036;-73
2022/03/22 00:41:16;;;;;;;25.17;13.90;;;;;;;1.69;73.73;102769.72;5029969;28;20029;-74
2022/03/22 00:43:42;;;;;;;22.80;12.95;;;;;;;1.62;74.44;102777.91;5029479;28;20083;-74
2022/03/22 00:46:08;;;;;;;28.27;13.68;;;;;;;1.58;74.34;102771.03;5029668;28;20071;-74
2022/03/22 00:48:33;;;;;;;22.37;12.13;;;;;;;1.54;74.36;102769.41;5029389;28;20470;-75
2022/03/22 00:50:58;;;;;;;24.67;13.97;;;;;;;1.53;74.02;102758.03;5029574;28;20250;-74
2022/03/22 00:53:24;;;;;;;26.67;13.10;;;;;;;1.48;73.80;102745.03;5030059;28;20367;-74
2022/03/22 00:55:49;;;;;;;25.50;13.90;;;;;;;1.46;74.49;102765.28;5029425;28;20861;-74
2022/03/22 00:58:15;;;;;;;26.20;13.80;;;;;;;1.43;74.61;102765.38;5029862;28;20285;-74
2022/03/22 01:00:41;;;;;;;25.45;13.32;;;;;;;1.43;74.80;102772.44;5029241;28;20090;-75
2022/03/22 01:03:08;;;;;;;;;;;;;;;1.42;74.87;102773.34;5013416;28;20028;-74
2022/03/22 01:05:34;;;;;;;24.98;12.82;;;;;;;1.42;74.86;102773.34;5028841;28;20003;-74
2022/03/22 01:08:05;;;;;;;;;;;;;;;1.40;74.72;102768.09;5030219;28;20032;-75
2022/03/22 01:10:32;;;;;;;26.10;12.98;;;;;;;1.40;74.41;102762.00;5012643;28;19970;-74
2022/03/22 01:12:58;;;;;;;23.45;13.20;;;;;;;1.41;73.97;102753.19;5029297;28;20027;-74
2022/03/22 01:15:33;;;;;;;30.30;14.48;;;;;;;1.42;74.10;102749.63;5028982;28;20404;-74
2022/03/22 01:18:05;;;;;;;26.55;13.63;;;;;;;1.42;74.05;102747.84;5029552;28;20386;-74
2022/03/22 01:20:36;;;;;;;29.75;15.05;;;;;;;1.45;73.89;102754.78;5028733;28;20065;-75
2022/03/22 01:23:03;;;;;;;25.63;11.98;;;;;;;1.51;73.97;102749.31;5010856;28;20128;-74
2022/03/22 01:25:30;;;;;;;24.58;12.93;;;;;;;1.50;73.57;102739.72;5012266;28;20485;-76
2022/03/22 01:27:56;;;;;;;29.73;14.45;;;;;;;1.46;73.89;102746.00;5012481;28;20059;-75
2022/03/22 01:30:23;;;;;;;30.63;15.55;;;;;;;1.53;73.57;102744.84;5016251;28;20457;-76
2022/03/22 01:32:50;;;;;;;30.05;14.77;;;;;;;1.49;73.55;102730.06;5029165;28;20044;-75
2022/03/22 01:35:17;;;;;;;29.05;13.93;;;;;;;1.51;73.43;102724.78;5023122;28;20047;-77
2022/03/22 01:37:43;;;;;;;23.80;14.00;;;;;;;1.53;73.66;102725.56;5012734;28;20041;-75
2022/03/22 01:40:10;;;;;;;27.15;13.52;;;;;;;1.53;73.46;102720.31;5012101;28;20501;-75
2022/03/22 01:42:35;;;;;;;24.88;13.43;;;;;;;1.54;73.29;102714.97;5028587;28;20048;-75
2022/03/22 01:45:02;;;;;;;33.88;15.23;;;;;;;1.53;72.62;102700.09;5028712;28;20017;-76
2022/03/22 01:47:28;;;;;;;23.92;12.60;;;;;;;1.54;72.52;102693.06;5012441;28;20083;-74
2022/03/22 01:49:54;;;;;;;26.42;12.25;;;;;;;1.51;72.40;102686.13;5045949;28;20029;-75
2022/03/22 01:52:24;;;;;;;25.48;12.18;;;;;;;1.48;71.96;102671.31;5012262;28;20041;-75
2022/03/22 01:54:51;;;;;;;26.15;12.77;;;;;;;1.48;72.20;102683.63;5012045;28;20036;-75
2022/03/22 01:57:23;;;;;;;26.45;13.77;;;;;;;1.42;72.49;102682.06;5006052;28;20025;-75
2022/03/22 01:59:49;;;;;;;26.40;14.35;;;;;;;1.34;72.73;102688.53;5028093;28;20033;-75
2022/03/22 02:07:48;;;;;;;25.88;13.02;;;;;;;1.41;72.00;102663.72;5046170;28;20041;-75
2022/03/22 02:10:14;;;;;;;24.08;13.25;;;;;;;1.41;71.40;102643.50;5028354;28;20032;-75
2022/03/22 02:12:41;;;;;;;;;;;;;;;1.43;71.23;102635.56;5016202;28;20536;-75
2022/03/22 02:15:07;;;;;;;21.55;11.98;;;;;;;1.44;71.16;102639.91;5028380;28;20413;-75
2022/03/22 02:17:34;;;;;;;23.80;12.85;;;;;;;1.40;71.09;102635.66;5005062;28;20123;-75
2022/03/22 02:20:00;;;;;;;;;;;;;;;1.36;71.66;102657.72;5011839;28;20020;-75
2022/03/22 02:22:34;;;;;;;22.42;12.30;;;;;;;1.32;71.88;102658.78;5028213;28;19928;-75
2022/03/22 02:25:00;;;;;;;23.83;12.07;;;;;;;1.31;71.47;102639.50;5028207;28;20037;-75
2022/03/22 02:27:28;;;;;;;25.02;12.48;;;;;;;1.31;71.40;102636.88;5027959;28;20110;-76
2022/03/22 02:29:53;;;;;;;23.50;13.27;;;;;;;1.27;71.66;102646.63;5021666;28;20120;-75
2022/03/22 02:32:26;;;;;;;27.17;14.23;;;;;;;1.28;71.60;102636.97;5011775;28;20504;-76
2022/03/22 02:34:52;;;;;;;24.85;12.68;;;;;;;1.26;71.93;102657.22;5011361;28;20114;-75
2022/03/22 02:37:18;;;;;;;26.58;13.55;;;;;;;1.25;71.91;102656.34;5022230;28;20466;-76
2022/03/22 02:39:44;;;;;;;25.98;13.00;;;;;;;1.23;71.87;102645.03;5027696;28;20037;-75
2022/03/22 02:42:10;;;;;;;25.13;12.63;;;;;;;1.25;71.95;102659.00;5028212;28;20021;-75
2022/03/22 02:44:35;;;;;;;22.73;12.23;;;;;;;1.26;71.64;102642.31;5010556;28;20210;-76
2022/03/22 02:47:01;;;;;;;24.23;12.25;;;;;;;1.30;71.43;102640.41;5028232;28;20063;-76
2022/03/22 02:49:30;;;;;;;;;;;;;;;1.36;72.07;102661.25;5027913;28;20350;-75
2022/03/22 02:51:56;;;;;;;27.58;13.70;;;;;;;1.35;71.87;102663.91;5009393;28;20023;-76
2022/03/22 02:54:21;;;;;;;26.08;12.25;;;;;;;1.37;72.05;102662.09;5030022;28;20132;-74
2022/03/22 02:56:47;;;;;;;26.03;13.07;;;;;;;1.39;71.98;102666.38;5028491;28;20029;-75
2022/03/22 02:59:12;;;;;;;28.58;13.23;;;;;;;1.46;72.12;102673.13;5011467;28;20083;-74
2022/03/22 03:01:37;;;;;;;26.20;13.37;;;;;;;1.42;72.27;102673.31;5011509;28;20029;-75
2022/03/22 03:04:03;;;;;;;25.17;12.80;;;;;;;1.43;72.64;102680.31;5012130;28;20634;-75
2022/03/22 03:06:29;;;;;;;24.23;12.87;;;;;;;1.42;72.27;102670.66;5028591;28;20082;-75
2022/03/22 03:08:59;;;;;;;27.70;13.13;;;;;;;1.39;72.36;102671.66;5019694;28;20064;-74
2022/03/22 03:11:26;;;;;;;24.90;13.00;;;;;;;1.40;72.22;102672.50;5011536;28;20610;-75
2022/03/22 03:16:39;;;;;;;26.08;13.98;;;;;;;1.35;71.54;102627.06;5027950;28;20136;-74
2022/03/22 03:19:05;;;;;;;26.65;12.88;;;;;;;1.33;71.40;102626.25;5028101;28;20075;-76
2022/03/22 03:21:31;;;;;;;24.48;12.73;;;;;;;1.29;71.73;102627.28;5028279;28;20029;-76
2022/03/22 03:23:56;;;;;;;27.48;12.43;;;;;;;1.23;71.70;102621.34;5028489;28;20093;-74
2022/03/22 03:26:21;;;;;;;24.30;12.60;;;;;;;1.20;71.58;102629.34;5028184;28;20588;-74
2022/03/22 03:28:47;;;;;;;27.20;13.83;;;;;;;1.12;71.44;102622.66;5029392;28;20037;-75
2022/03/22 03:31:12;;;;;;;27.77;14.63;;;;;;;1.07;71.95;102640.38;5031831;28;20037;-75
2022/03/22 03:33:37;;;;;;;20.63;11.33;;;;;;;0.99;72.45;102645.91;5032446;28;20428;-74
2022/03/22 03:36:03;;;;;;;27.80;13.53;;;;;;;0.79;72.66;102647.44;5031882;28;20036;-74
2022/03/22 03:38:29;;;;;;;24.60;13.77;;;;;;;0.83;73.15;102679.78;5015270;28;20028;-76
2022/03/22 03:43:43;;;;;;;23.35;11.43;;;;;;;0.78;73.89;102695.69;4999296;28;20056;-74
2022/03/22 03:48:53;;;;;;;24.92;12.88;;;;;;;0.91;73.66;102703.16;5031758;28;20059;-75
2022/03/22 03:51:19;;;;;;;;;;;;;;;0.98;73.56;102712.56;5032292;28;20048;-75
2022/03/22 03:53:44;;;;;;;23.83;12.30;;;;;;;1.08;73.14;102705.22;5015500;28;19955;-75
2022/03/22 03:56:10;;;;;;;27.07;13.03;;;;;;;1.12;73.15;102704.19;5031796;28;20025;-75
2022/03/22 03:58:36;;;;;;;23.55;12.88;;;;;;;1.49;71.78;102698.50;5011898;28;20033;-75
2022/03/22 04:01:02;;;;;;;23.07;12.07;;;;;;;1.73;70.85;102669.53;5031918;28;20099;-75
2022/03/22 04:03:27;;;;;;;24.77;12.90;;;;;;;1.85;69.54;102627.78;5015105;28;20497;-75
2022/03/22 04:05:52;;;;;;;28.40;12.87;;;;;;;2.00;68.69;102607.88;5031590;28;20033;-75
2022/03/22 04:08:18;;;;;;;23.40;11.93;;;;;;;2.21;67.62;102584.22;5031356;28;20065;-74
2022/03/22 04:10:43;;;;;;;20.53;11.33;;;;;;;2.49;65.65;102526.75;5014766;28;20104;-74
2022/03/22 04:13:09;;;;;;;23.40;12.13;;;;;;;2.51;65.00;102493.28;5014526;28;20294;-75
2022/03/22 04:15:34;;;;;;;20.43;11.40;;;;;;;2.71;63.86;102467.78;5011592;28;20065;-75
2022/03/22 04:17:59;;;;;;;24.33;11.23;;;;;;;2.71;63.33;102439.63;5014179;28;20166;-75
2022/03/22 04:20:30;;;;;;;25.93;12.30;;;;;;;2.59;63.87;102458.66;5014799;28;20118;-75
2022/03/22 04:22:55;;;;;;;23.50;12.90;;;;;;;2.60;63.37;102448.94;5031151;28;20025;-76
2022/03/22 04:25:22;;;;;;;19.25;11.38;;;;;;;2.63;63.50;102460.22;5014679;28;20036;-75
2022/03/22 04:33:15;;;;;;;21.42;11.93;;;;;;;2.47;63.93;102481.16;5042540;28;20036;-75
2022/03/22 04:35:40;;;;;;;21.07;11.87;;;;;;;2.51;63.76;102500.34;5011269;28;20022;-75
2022/03/22 04:38:07;;;;;;;23.92;12.00;;;;;;;2.53;63.88;102498.50;5013089;28;20034;-75
2022/03/22 04:40:32;;;;;;;22.15;12.18;;;;;;;2.46;64.20;102495.28;5012750;28;20021;-75
2022/03/22 04:42:58;;;;;;;19.77;11.43;;;;;;;2.69;62.91;102483.72;5030617;28;20064;-75
2022/03/22 04:45:24;;;;;;;21.10;11.83;;;;;;;2.72;62.73;102475.66;5021885;28;20059;-75
2022/03/22 04:47:50;;;;;;;24.27;12.13;;;;;;;2.67;62.78;102466.22;5031145;28;20311;-76
2022/03/22 04:50:17;;;;;;;23.97;12.97;;;;;;;2.72;62.56;102469.53;5014122;28;20048;-75
2022/03/22 04:58:11;;;;;;;22.65;12.43;;;;;;;2.64;62.44;102469.00;5048409;28;20690;-75
2022/03/22 05:00:37;;;;;;;20.80;11.97;;;;;;;2.48;62.56;102459.16;5013711;28;20107;-77
2022/03/22 05:03:03;;;;;;;23.10;12.50;;;;;;;2.39;63.63;102499.09;5030481;28;20466;-76
2022/03/22 05:08:13;;;;;;;24.30;11.90;;;;;;;2.30;64.51;102560.13;5023805;28;20040;-76
2022/03/22 05:10:38;;;;;;;22.30;13.18;;;;;;;2.26;64.92;102576.97;5028876;28;20025;-75
2022/03/22 05:13:05;;;;;;;25.57;14.70;;;;;;;2.27;64.72;102570.75;5029739;28;20040;-75
2022/03/22 05:15:32;;;;;;;24.58;13.40;;;;;;;2.16;64.92;102557.19;5029317;28;20067;-76
2022/03/22 05:17:58;;;;;;;24.00;12.88;;;;;;;2.20;64.48;102564.91;5029270;28;20024;-76
2022/03/22 05:20:23;;;;;;;;;;;;;;;2.11;64.99;102566.16;5029653;28;20025;-76
2022/03/22 05:22:49;;;;;;;22.63;11.90;;;;;;;2.08;65.61;102599.66;5013019;28;19920;-75
2022/03/22 05:25:15;;;;;;;24.93;13.27;;;;;;;1.95;66.39;102619.53;5029447;28;20063;-75
2022/03/22 05:27:41;;;;;;;23.30;11.88;;;;;;;1.87;67.41;102648.78;5029184;28;20394;-77
2022/03/22 05:30:07;;;;;;;22.05;12.35;;;;;;;1.90;67.87;102677.66;5011741;28;20025;-76
2022/03/22 05:32:33;;;;;;;24.15;12.85;;;;;;;1.95;67.86;102691.50;5012620;28;20524;-76
2022/03/22 05:34:59;;;;;;;23.00;13.43;;;;;;;2.06;67.67;102702.50;5012631;28;20028;-76
2022/03/22 05:37:25;;;;;;;23.70;13.70;;;;;;;2.06;68.05;102710.41;5016913;28;20055;-75
2022/03/22 05:39:50;;;;;;;24.20;12.63;;;;;;;2.15;68.04;102708.31;5012444;28;20423;-76
2022/03/22 05:42:16;;;;;;;22.25;11.50;;;;;;;2.19;68.13;102702.84;5029130;28;20036;-76
2022/03/22 05:44:43;;;;;;;26.23;12.25;;;;;;;2.17;68.22;102711.75;5011957;28;20024;-76
2022/03/22 05:47:09;;;;;;;22.27;12.40;;;;;;;2.16;68.33;102716.16;5006331;28;20021;-75
2022/03/22 05:49:36;;;;;;;24.52;14.07;;;;;;;2.19;68.69;102736.28;5012440;28;20021;-75
2022/03/22 05:52:03;;;;;;;24.27;11.73;;;;;;;2.37;66.92;102682.84;5011890;28;20039;-76
2022/03/22 05:54:28;;;;;;;24.88;10.93;;;;;;;2.50;65.71;102618.09;5029256;28;20031;-76
2022/03/22 05:56:54;;;;;;;21.60;11.60;;;;;;;2.53;64.67;102586.34;5006503;28;20029;-75
2022/03/22 05:59:19;;;;;;;30.30;12.93;;;;;;;2.49;64.30;102563.69;5028434;28;20036;-74
2022/03/22 06:01:45;;;;;;;25.63;12.13;;;;;;;2.61;64.10;102569.34;5012633;28;20929;-75
2022/03/22 06:04:11;;;;;;;24.40;13.07;;;;;;;2.63;64.01;102578.06;5013169;28;20056;-75
2022/03/22 06:06:37;;;;;;;25.48;14.00;;;;;;;2.66;63.65;102567.38;5029778;28;20529;-76
2022/03/22 06:09:03;;;;;;;29.42;13.35;;;;;;;2.79;63.27;102565.91;5013136;28;20111;-76
2022/03/22 06:11:35;;;;;;;23.83;12.27;;;;;;;2.75;62.95;102540.59;5029390;28;20044;-75
2022/03/22 06:14:05;;;;;;;23.80;11.35;;;;;;;2.87;62.68;102545.31;5009568;28;20036;-77
2022/03/22 06:16:30;;;;;;;24.25;12.63;;;;;;;3.12;62.70;102583.81;5029452;28;20094;-75
2022/03/22 06:18:56;;;;;;;23.25;12.18;;;;;;;3.42;62.40;102609.72;5011764;28;20032;-77
2022/03/22 06:21:22;;;;;;;24.30;12.93;;;;;;;3.56;61.66;102568.56;5012958;28;20612;-75
2022/03/22 06:23:47;;;;;;;22.20;12.18;;;;;;;3.87;60.46;102526.59;5029476;28;20061;-75
2022/03/22 06:26:14;;;;;;;22.20;12.00;;;;;;;3.95;59.20;102456.56;5029707;28;20166;-75
2022/03/22 06:28:40;;;;;;;21.38;12.55;;;;;;;3.77;58.80;102420.50;5029003;28;20032;-75
2022/03/22 06:31:05;;;;;;;23.10;11.63;;;;;;;3.76;58.65;102424.06;5012342;28;20029;-75
2022/03/22 06:33:31;;;;;;;24.43;12.30;;;;;;;3.68;59.17;102453.53;5029922;28;20099;-76
2022/03/22 06:35:56;;;;;;;24.45;13.77;;;;;;;3.90;59.06;102494.72;5012835;28;20474;-75
2022/03/22 06:38:22;;;;;;;23.07;12.43;;;;;;;3.89;58.47;102461.31;5009882;28;20037;-75
2022/03/22 06:40:49;;;;;;;25.47;13.03;;;;;;;4.00;58.46;102453.69;5028369;28;20114;-74
2022/03/22 06:43:15;;;;;;;22.73;11.40;;;;;;;3.87;58.58;102452.59;5021401;28;20487;-74
2022/03/22 06:45:41;;;;;;;22.20;11.68;;;;;;;3.88;58.94;102492.16;5029175;28;20120;-77
2022/03/22 06:48:10;;;;;;;19.05;10.38;;;;;;;4.17;59.17;102566.50;5009188;28;20112;-75
2022/03/22 06:50:37;;;;;;;28.40;11.75;;;;;;;4.13;59.12;102528.78;5042544;28;20029;-75
2022/03/22 06:53:04;;;;;;;22.85;12.40;;;;;;;4.30;59.07;102557.00;5012879;28;20028;-75
2022/03/22 06:55:31;;;;;;;23.52;13.77;;;;;;;4.46;59.05;102570.31;5012719;28;20036;-75
2022/03/22 06:57:57;;;;;;;21.25;11.77;;;;;;;4.68;58.28;102540.09;5012759;28;20032;-75
2022/03/22 07:00:23;;;;;;;23.60;13.10;;;;;;;4.97;58.13;102567.69;5008907;28;20033;-76
2022/03/22 07:02:49;;;;;;;23.40;12.63;;;;;;;5.10;57.58;102547.56;5029516;28;20106;-75
2022/03/22 07:05:15;;;;;;;24.92;12.20;;;;;;;5.05;57.48;102528.41;5024676;28;20044;-75
2022/03/22 07:07:41;;;;;;;;;;;;;;;5.21;57.01;102512.56;5016431;28;20045;-76
2022/03/22 07:10:10;;;;;;;20.73;11.50;;;;;;;5.35;56.85;102531.19;5016261;28;19917;-75
2022/03/22 07:13:05;;;;;;;21.42;12.63;;;;;;;5.02;56.68;102444.72;5031918;28;20025;-75
2022/03/22 07:15:35;;;;;;;33.83;12.55;;;;;;;5.34;56.93;102526.84;5011407;28;20139;-75
2022/03/22 07:18:01;;;;;;;25.42;12.43;;;;;;;5.40;56.46;102520.34;5012198;28;20030;-75
2022/03/22 07:20:27;;;;;;;22.75;12.23;;;;;;;5.06;56.92;102478.03;5020937;28;20025;-75
2022/03/22 07:22:52;;;;;;;;;;;;;;;5.11;56.81;102488.38;5031498;28;20078;-76
2022/03/22 07:25:18;;;;;;;;;;;;;;;5.70;56.85;102599.91;5016459;28;20293;-75
2022/03/22 07:27:44;;;;;;;22.75;12.05;;;;;;;5.96;55.71;102540.16;5032465;28;19932;-75
2022/03/22 07:30:11;;;;;;;24.30;13.15;;;;;;;6.05;55.48;102525.50;5031674;28;20100;-75
2022/03/22 07:32:40;;;;;;;23.52;13.18;;;;;;;5.91;54.88;102460.84;5049389;28;20079;-76
2022/03/22 07:35:07;;;;;;;27.13;12.30;;;;;;;6.31;54.71;102508.06;5031008;28;20103;-76
2022/03/22 07:37:34;;;;;;;26.00;12.40;;;;;;;6.65;53.96;102504.22;5015070;28;20068;-75
2022/03/22 07:40:00;;;;;;;21.33;12.32;;;;;;;6.76;53.46;102459.25;5015116;28;20103;-75
2022/03/22 07:42:27;;;;;;;20.33;12.65;;;;;;;6.67;53.10;102443.06;5032464;28;20033;-77
2022/03/22 07:45:00;;;;;;;28.42;12.90;;;;;;;6.70;52.95;102443.72;5031920;28;20413;-75
2022/03/22 07:47:25;;;;;;;20.00;11.73;;;;;;;6.86;53.32;102471.97;5014890;28;20527;-75
2022/03/22 07:55:20;;;;;;;24.15;13.80;;;;;;;7.22;53.05;102500.66;5025788;28;20094;-76
2022/03/22 07:57:46;;;;;;;24.50;13.03;;;;;;;6.99;53.29;102464.94;5023120;28;20033;-76
2022/03/22 08:00:12;;;;;;;23.40;12.57;;;;;;;8.04;52.72;102594.63;5031192;28;20815;-76
2022/03/22 08:02:37;;;;;;;22.17;12.77;;;;;;;8.40;51.79;102550.56;5014213;28;20100;-75
2022/03/22 08:05:04;;;;;;;24.53;12.57;;;;;;;8.62;50.75;102470.94;5030188;28;20063;-75
2022/03/22 08:07:30;;;;;;;22.35;12.95;;;;;;;8.56;50.29;102423.44;5030535;28;20072;-76
2022/03/22 08:09:56;;;;;;;23.33;13.73;;;;;;;8.92;50.17;102458.22;5029875;28;20044;-76
2022/03/22 08:12:21;;;;;;;20.87;13.10;;;;;;;9.22;50.24;102527.09;5014479;28;20040;-76
2022/03/22 08:14:47;;;;;;;23.70;13.27;;;;;;;9.59;48.70;102399.09;5013048;28;20110;-76
2022/03/22 08:17:12;;;;;;;23.33;12.73;;;;;;;10.20;47.95;102462.94;5013478;28;20021;-77
2022/03/22 08:19:37;;;;;;;25.60;14.27;;;;;;;10.77;47.21;102464.75;5013432;28;20033;-77
2022/03/22 08:22:03;;;;;;;26.67;13.43;;;;;;;11.39;45.89;102407.97;5030191;28;20191;-76
2022/03/22 08:24:28;;;;;;;22.33;13.73;;;;;;;11.68;45.27;102395.81;5013488;28;20041;-77
2022/03/22 08:26:54;;;;;;;21.33;12.53;;;;;;;11.97;44.14;102339.84;5029755;28;20066;-76
2022/03/22 08:29:20;;;;;;;22.90;12.75;;;;;;;11.34;43.69;102174.88;5014246;28;20025;-76
2022/03/22 08:31:45;;;;;;;21.70;13.40;;;;;;;11.69;43.28;102245.88;5034725;28;20067;-76
2022/03/22 08:34:10;;;;;;;22.97;13.73;;;;;;;11.43;43.65;102183.09;5052375;28;20041;-77
2022/03/22 08:36:36;;;;;;;20.03;12.83;;;;;;;11.87;44.24;102363.00;5029952;28;20033;-78
2022/03/22 08:39:02;;;;;;;18.37;12.80;;;;;;;12.67;42.88;102351.56;5016090;28;20035;-76
2022/03/22 08:41:27;;;;;;;28.05;13.45;;;;;;;12.70;42.18;102259.31;5029942;28;20064;-77
2022/03/22 08:43:53;;;;;;;22.37;13.60;;;;;;;13.08;40.87;102210.22;5013110;28;20044;-76
2022/03/22 08:46:24;;;;;;;20.93;13.07;;;;;;;12.98;40.60;102180.75;5013957;28;20024;-77
2022/03/22 08:48:51;;;;;;;20.95;13.13;;;;;;;13.69;40.92;102319.00;5047799;28;20298;-76
2022/03/22 08:51:18;;;;;;;23.75;14.38;;;;;;;13.69;40.47;102282.25;5041006;28;20432;-76
2022/03/22 08:53:44;;;;;;;25.73;14.45;;;;;;;12.92;40.99;102181.28;5029790;28;20033;-76
2022/03/22 08:56:10;;;;;;;24.07;14.00;;;;;;;12.64;40.91;102130.28;5028403;28;20055;-77
2022/03/22 08:58:35;;;;;;;19.00;12.80;;;;;;;13.63;40.51;102279.34;5046386;28;20631;-77
2022/03/22 09:01:01;;;;;;;17.50;12.77;;;;;;;14.38;39.92;102317.75;5012943;28;20025;-78
2022/03/22 09:03:28;;;;;;;20.05;12.65;;;;;;;14.32;38.97;102187.53;5029459;28;20056;-76
2022/03/22 09:06:10;;;;;;;20.30;13.82;;;;;;;14.91;38.43;102257.88;5034752;28;20452;-77
2022/03/22 09:08:37;;;;;;;23.13;14.25;;;;;;;15.40;38.14;102262.78;5028956;28;20048;-78
2022/03/22 09:11:04;;;;;;;23.65;14.18;;;;;;;15.15;37.69;102181.91;5010799;28;20090;-76
2022/03/22 09:13:30;;;;;;;20.55;14.40;;;;;;;13.51;39.25;102053.28;5022499;28;20128;-77
2022/03/22 09:15:55;;;;;;;24.67;14.90;;;;;;;12.86;40.56;102067.47;5028873;28;20135;-76
2022/03/22 09:18:21;;;;;;;22.15;14.18;;;;;;;14.19;39.25;102246.19;5013413;28;20049;-77
2022/03/22 09:20:47;;;;;;;21.02;13.85;;;;;;;14.92;38.66;102296.38;5029184;28;20095;-77
2022/03/22 09:23:13;;;;;;;;;;;;;;;15.19;37.25;102196.75;5013618;28;20206;-77
2022/03/22 09:25:40;;;;;;;;;;;;;;;15.20;37.93;102217.25;5017173;28;19909;-76
2022/03/22 09:28:06;;;;;;;23.05;14.80;;;;;;;14.30;37.64;102008.72;5029235;28;19917;-76
2022/03/22 09:30:35;;;;;;;27.70;15.00;;;;;;;15.07;37.28;102132.59;5023665;28;20542;-76
2022/03/22 09:33:04;;;;;;;21.60;14.10;;;;;;;15.63;37.17;102233.50;5044647;28;20049;-77
2022/03/22 09:35:30;;;;;;;24.05;15.27;;;;;;;14.97;37.18;102068.16;5012375;28;20543;-76
2022/03/22 09:37:56;;;;;;;21.30;14.13;;;;;;;15.20;37.02;102122.25;5028521;28;20876;-76
2022/03/22 09:40:22;;;;;;;25.13;14.65;;;;;;;15.75;36.56;102172.19;5046199;28;20025;-76
2022/03/22 09:42:48;;;;;;;25.52;14.38;;;;;;;16.09;36.85;102230.56;5028978;28;20401;-77
2022/03/22 09:45:21;;;;;;;20.40;13.95;;;;;;;15.86;36.72;102171.88;5011925;28;20039;-76
2022/03/22 09:47:47;;;;;;;21.67;13.60;;;;;;;16.51;35.34;102140.72;5028587;28;20033;-76
2022/03/22 09:50:15;;;;;;;23.67;14.37;;;;;;;15.58;35.82;101935.19;5046238;28;20020;-77
2022/03/22 09:52:41;;;;;;;20.73;13.55;;;;;;;15.22;37.88;102143.59;5029105;28;20603;-77
2022/03/22 09:55:09;;;;;;;21.38;12.98;;;;;;;16.05;37.21;102216.56;5046440;28;20029;-76
2022/03/22 09:57:36;;;;;;;23.40;15.05;;;;;;;16.58;36.49;102265.75;5046401;28;20082;-76
2022/03/22 10:00:02;;;;;;;24.77;16.45;;;;;;;16.17;36.17;102090.47;5028481;28;20033;-77
2022/03/22 10:02:37;;;;;;;26.50;14.93;;;;;;;16.48;37.75;102308.16;5046224;28;20098;-77
2022/03/22 10:05:03;;;;;;;22.37;14.90;;;;;;;17.14;37.01;102369.41;5028567;28;20029;-77
2022/03/22 10:07:29;;;;;;;20.63;15.38;;;;;;;16.27;36.57;102107.31;5028803;28;20371;-77
2022/03/22 10:10:05;;;;;;;22.33;13.53;;;;;;;17.53;37.15;102406.53;5046218;28;20098;-76
2022/03/22 10:12:33;;;;;;;21.05;14.85;;;;;;;18.21;36.05;102366.63;5029159;28;20057;-77
2022/03/22 10:15:13;;;;;;;22.55;15.32;;;;;;;17.95;35.01;102197.47;5028930;28;20036;-77
2022/03/22 10:17:39;;;;;;;22.95;16.85;;;;;;;16.78;36.69;102116.09;5012262;28;20094;-77
2022/03/22 10:20:06;;;;;;;23.30;15.05;;;;;;;16.70;36.72;102129.59;5011901;28;20024;-77
2022/03/22 10:22:34;;;;;;;25.58;15.35;;;;;;;16.44;36.76;102125.19;5028216;28;20094;-77
2022/03/22 10:25:02;;;;;;;23.05;15.13;;;;;;;17.22;36.86;102274.94;5011325;28;20178;-76
2022/03/22 10:27:31;;;;;;;25.75;15.07;;;;;;;17.21;36.44;102224.69;5027528;28;20090;-77
2022/03/22 10:29:58;;;;;;;23.98;16.45;;;;;;;17.50;36.35;102270.00;5045740;28;20024;-77
2022/03/22 10:32:34;;;;;;;20.00;15.40;;;;;;;18.58;35.65;102321.88;5027804;28;20083;-77
2022/03/22 10:35:29;;;;;;;21.67;14.40;;;;;;;18.33;35.14;102247.13;5011563;28;20032;-77
2022/03/22 10:37:56;;;;;;;20.27;14.13;;;;;;;19.36;34.38;102304.59;5028604;28;20044;-77
2022/03/22 10:40:28;;;;;;;23.38;15.98;;;;;;;17.64;34.38;101939.00;5027368;28;20768;-77
2022/03/22 10:42:58;;;;;;;23.65;15.90;;;;;;;18.08;35.01;102086.13;5027969;28;20041;-77
2022/03/22 10:45:28;;;;;;;23.27;16.08;;;;;;;16.18;37.01;101995.19;5028434;28;20039;-77
2022/03/22 10:47:54;;;;;;;22.63;15.98;;;;;;;17.02;37.02;102208.81;5027621;28;20025;-76
2022/03/22 10:50:20;;;;;;;22.88;15.60;;;;;;;18.30;34.92;102216.91;5045796;28;20496;-77
2022/03/22 10:52:56;;;;;;;26.03;15.90;;;;;;;18.90;34.65;102275.69;5046105;28;20095;-77
2022/03/22 10:55:24;;;;;;;22.70;15.07;;;;;;;19.58;33.57;102240.56;5022346;28;20397;-77
2022/03/22 10:57:53;;;;;;;25.40;15.80;;;;;;;18.49;33.44;101986.56;5027949;28;20425;-77
2022/03/22 11:00:19;;;;;;;22.83;16.27;;;;;;;19.16;33.63;102161.63;5021761;28;20112;-77
2022/03/22 11:02:49;;;;;;;30.70;16.65;;;;;;;17.67;35.11;101998.03;5045451;28;20029;-77
2022/03/22 11:05:15;;;;;;;29.35;16.20;;;;;;;19.11;33.56;102160.50;5027871;28;20029;-77
2022/03/22 11:07:40;;;;;;;23.73;15.38;;;;;;;19.02;32.86;102001.94;5028076;28;20047;-77
2022/03/22 11:10:06;;;;;;;25.17;16.67;;;;;;;19.42;32.37;102045.75;5011259;28;20021;-77
2022/03/22 11:12:34;;;;;;;22.67;15.90;;;;;;;20.14;32.47;102177.75;5027513;28;20275;-77
2022/03/22 11:15:01;;;;;;;27.05;15.80;;;;;;;20.26;32.02;102075.03;5044655;28;20025;-77
2022/03/22 11:17:34;;;;;;;18.77;14.95;;;;;;;20.30;30.64;102044.63;5045751;28;20399;-77
2022/03/22 11:20:01;;;;;;;24.27;16.60;;;;;;;20.84;29.65;102027.72;5010447;28;20075;-77
2022/03/22 11:22:28;;;;;;;20.65;16.23;;;;;;;20.11;29.90;101839.25;5045672;28;20039;-77
2022/03/22 11:25:16;;;;;;;22.40;16.13;;;;;;;21.35;29.44;102006.66;5045999;28;20053;-77
2022/03/22 11:27:41;;;;;;;24.15;16.20;;;;;;;21.75;28.63;101944.28;5045500;28;20044;-77
2022/03/22 11:30:07;;;;;;;22.93;15.77;;;;;;;19.25;29.00;101398.97;5027701;28;20021;-76
2022/03/22 11:35:24;;;;;;;26.73;16.33;;;;;;;19.56;27.04;101657.56;5021712;28;19913;-77
2022/03/22 11:38:00;;;;;;;23.42;16.15;;;;;;;19.56;28.18;101551.94;5027679;28;20586;-77
2022/03/22 11:43:12;;;;;;;26.05;16.67;;;;;;;18.31;30.47;101551.72;5032306;28;20120;-78
2022/03/22 11:45:51;;;;;;;30.95;16.83;;;;;;;17.89;29.37;101350.78;5014187;28;20029;-77
2022/03/22 11:48:18;;;;;;;22.95;16.20;;;;;;;17.44;29.65;101287.22;5044942;28;20506;-77
2022/03/22 11:50:45;;;;;;;23.60;15.60;;;;;;;19.29;28.66;101635.75;5029806;28;20025;-77
2022/03/22 11:53:19;;;;;;;25.77;15.10;;;;;;;18.88;28.57;101446.28;5006532;28;20033;-77
2022/03/22 11:55:48;;;;;;;22.80;15.32;;;;;;;18.54;29.23;101462.28;5048800;28;20033;-77
2022/03/22 11:58:14;;;;;;;25.30;15.98;;;;;;;17.88;30.67;101507.63;5030872;28;20349;-78